Gildeskaal — LLDI — position and weather

sailwx.info

Track history (hours):
 
Tides and Currents Weather Stations Pressure Air Temp Water Temp Dewpoint Dewpoint Depression Visibility Wind Speed Wind Dir Waves Ship Positions

Gildeskaal

Last reported at 2014-Oct-10 11:26 UTC. Time now 2014-Oct-21 12:03 UTC.
Position N 67°07' E 013°59'.
Warning: this ship's position is 11 days out of date.

Length 52 m; draft 3.2 m.

Type: Ship. MMSI: 259680000.

Date/timePositionNaut miles runAvg speedWind from/ knotsBaromVisibWave heightAir tempDewpointWater temp
2014-Oct-10 11:26N 67°07' E 013°59'1 0.4
2014-Oct-10 09:27N 67°07' E 013°59'0 0.1
2014-Oct-10 07:33N 67°07' E 013°59'1 0.5
2014-Oct-10 05:17N 67°06' E 013°59'3 0.9
2014-Oct-10 02:27N 67°08' E 013°59'0 0.0
2014-Oct-10 01:33N 67°08' E 013°59'0 0.0
2014-Oct-10 00:33N 67°08' E 013°59'0 0.0
2014-Oct-09 23:32N 67°08' E 013°59'0 0.0
2014-Oct-09 22:25N 67°08' E 013°59'0 0.0
2014-Oct-09 19:19N 67°08' E 013°59'3 2.7
2014-Oct-09 18:13N 67°05' E 013°60'1 2.1
2014-Oct-09 17:33N 67°07' E 013°59'1 1.4
2014-Oct-09 16:31N 67°05' E 014°00'2 0.5
2014-Oct-09 13:08N 67°07' E 013°59'1 2.0
2014-Oct-09 12:33N 67°08' E 013°59'0 0.0
2014-Oct-09 11:33N 67°08' E 013°59'2 0.9
2014-Oct-09 09:28N 67°06' E 013°59'0 0.0
2014-Oct-09 05:12N 67°06' E 013°59'2 0.6
2014-Oct-09 02:04N 67°08' E 013°59'0 0.0
2014-Oct-09 01:33N 67°08' E 013°59'0 0.0
2014-Oct-09 00:33N 67°08' E 013°59'0 0.0
2014-Oct-08 23:32N 67°08' E 013°59'0 0.0
2014-Oct-08 22:32N 67°08' E 013°59'0 0.0
2014-Oct-08 21:28N 67°08' E 013°59'0 0.0
2014-Oct-08 19:21N 67°08' E 013°59'3 2.5
2014-Oct-08 18:10N 67°05' E 013°60'1 1.9
2014-Oct-08 17:31N 67°06' E 013°59'0 0.2
2014-Oct-08 16:24N 67°06' E 013°59'1 0.2
2014-Oct-08 13:17N 67°06' E 013°59'3 3.1
2014-Oct-08 12:28N 67°08' E 013°59'0 0.0
2014-Oct-08 11:33N 67°08' E 013°59'2 0.9
2014-Oct-08 09:29N 67°06' E 013°59'0 0.1
2014-Oct-08 07:30N 67°07' E 013°59'1 0.4
2014-Oct-08 05:17N 67°06' E 013°59'3 3.6
2014-Oct-08 04:33N 67°08' E 013°59'0 0.0
2014-Oct-08 01:06N 67°08' E 013°59'0 0.0
2014-Oct-08 00:26N 67°08' E 013°59'0 0.0
2014-Oct-07 23:29N 67°08' E 013°59'0 0.0
2014-Oct-07 22:31N 67°08' E 013°59'0 0.0
2014-Oct-07 21:26N 67°08' E 013°59'0 0.0
2014-Oct-07 20:27N 67°08' E 013°59'0 0.0
2014-Oct-07 19:29N 67°08' E 013°59'3 3.0
2014-Oct-07 18:31N 67°05' E 014°00'2 1.1
2014-Oct-07 16:33N 67°07' E 013°59'1 0.3
2014-Oct-07 13:12N 67°07' E 013°59'2 2.6
2014-Oct-07 12:32N 67°08' E 013°59'0 0.0
2014-Oct-07 11:33N 67°08' E 013°59'2 0.8
2014-Oct-07 09:28N 67°07' E 013°59'2 1.8
2014-Oct-07 08:31N 67°08' E 013°59'2 0.5
2014-Oct-07 05:12N 67°06' E 013°59'2 0.9
2014-Oct-07 03:22N 67°08' E 013°59'0 0.0
2014-Oct-07 02:28N 67°08' E 013°59'0 0.0
2014-Oct-07 01:27N 67°08' E 013°59'0 0.0
2014-Oct-07 00:33N 67°08' E 013°59'0 0.0
2014-Oct-06 23:32N 67°08' E 013°59'0 0.0
2014-Oct-06 22:32N 67°08' E 013°59'0 0.0
2014-Oct-06 21:28N 67°08' E 013°59'0 0.0
2014-Oct-06 20:33N 67°08' E 013°59'0 0.0
2014-Oct-06 19:30N 67°08' E 013°59'2 1.5
2014-Oct-06 18:06N 67°06' E 013°59'1 0.5
2014-Oct-06 16:32N 67°05' E 013°60'3 0.7
2014-Oct-06 12:33N 67°08' E 013°59'2 0.5
2014-Oct-06 09:27N 67°07' E 013°59'2 1.7
2014-Oct-06 08:29N 67°08' E 013°59'1 1.3
2014-Oct-06 07:33N 67°07' E 013°59'1 0.3
2014-Oct-06 05:13N 67°06' E 013°59'2 2.8
2014-Oct-06 04:30N 67°08' E 013°59'0 0.0
2014-Oct-06 03:32N 67°08' E 013°59'0 0.0
2014-Oct-06 02:32N 67°08' E 013°59'0 0.0
2014-Oct-06 01:31N 67°08' E 013°59'0 0.0
2014-Oct-06 00:30N 67°08' E 013°59'0 0.0
2014-Oct-05 23:29N 67°08' E 013°59'0 0.0
2014-Oct-05 20:22N 67°08' E 013°59'0 0.0
2014-Oct-05 19:15N 67°08' E 013°59'2 0.7
2014-Oct-05 17:07N 67°07' E 013°59'1 1.5
2014-Oct-05 16:31N 67°08' E 013°59'2 1.5
2014-Oct-05 15:07N 67°05' E 013°60'2 1.3
2014-Oct-05 13:33N 67°07' E 013°59'2 0.4
2014-Oct-05 08:10N 67°05' E 014°00'2 3.9
2014-Oct-05 07:33N 67°08' E 013°58'3 0.2
2014-Oct-04 15:31N 67°05' E 014°00'1 0.2
2014-Oct-04 09:27N 67°06' E 013°58'2 1.9
2014-Oct-04 08:32N 67°08' E 013°59'1 0.7
2014-Oct-04 07:31N 67°08' E 013°59'1 0.8
2014-Oct-04 06:13N 67°06' E 013°59'2 0.2
2014-Oct-03 20:10N 67°08' E 013°59'0 0.0
2014-Oct-03 19:28N 67°08' E 013°59'3 2.3
2014-Oct-03 18:12N 67°05' E 014°00'1 0.4
2014-Oct-03 15:23N 67°06' E 013°59'1 0.5
2014-Oct-03 13:21N 67°05' E 014°00'1 0.2
2014-Oct-03 09:29N 67°06' E 013°59'2 2.1
2014-Oct-03 08:32N 67°08' E 013°59'3 0.9
2014-Oct-03 05:21N 67°05' E 014°00'3 3.6
2014-Oct-03 04:33N 67°08' E 013°59'0 0.0
2014-Oct-03 03:33N 67°08' E 013°59'0 0.0
2014-Oct-03 02:33N 67°08' E 013°59'0 0.0
2014-Oct-02 22:24N 67°08' E 013°59'0 0.0
2014-Oct-02 21:30N 67°08' E 013°59'0 0.0
2014-Oct-02 20:33N 67°08' E 013°59'0 0.0
2014-Oct-02 19:33N 67°08' E 013°59'3 1.8
2014-Oct-02 18:08N 67°06' E 013°59'1 0.5
2014-Oct-02 16:22N 67°07' E 013°59'2 2.1
2014-Oct-02 15:33N 67°08' E 013°59'2 0.9
2014-Oct-02 13:19N 67°06' E 013°59'2 2.6
2014-Oct-02 12:33N 67°08' E 013°59'0 0.0
2014-Oct-02 11:33N 67°08' E 013°59'2 0.8
2014-Oct-02 09:28N 67°07' E 013°59'2 1.8
2014-Oct-02 08:33N 67°08' E 013°59'1 1.1
2014-Oct-02 07:32N 67°07' E 013°59'2 0.9
2014-Oct-02 05:21N 67°05' E 014°00'3 3.7
2014-Oct-02 04:33N 67°08' E 013°59'0 0.0
2014-Oct-02 03:33N 67°08' E 013°59'0 0.0
2014-Oct-02 02:33N 67°08' E 013°59'0 0.0
2014-Oct-02 01:33N 67°08' E 013°59'0 0.0
2014-Oct-02 00:23N 67°08' E 013°59'0 0.0
2014-Oct-01 23:21N 67°08' E 013°59'0 0.0
2014-Oct-01 22:10N 67°08' E 013°59'0 0.0
2014-Oct-01 21:15N 67°08' E 013°59'0 0.0
2014-Oct-01 19:20N 67°08' E 013°59'3 2.7
2014-Oct-01 18:15N 67°05' E 014°00'2 3.2
2014-Oct-01 17:33N 67°08' E 013°59'2 1.8
2014-Oct-01 16:32N 67°06' E 013°59'3 2.1
2014-Oct-01 15:21N 67°08' E 013°59'2 1.0
2014-Oct-01 13:20N 67°06' E 013°59'2 1.6
2014-Oct-01 12:10N 67°08' E 013°59'2 1.3
2014-Oct-01 10:33N 67°06' E 013°59'0 0.1
2014-Oct-01 09:31N 67°06' E 013°59'42 3.1
2014-Sep-30 20:12N 66°32' E 012°58'810.0
2014-Sep-30 19:25N 66°24' E 012°58'  
Track history (hours):
 
Tides and Currents Weather Stations Pressure Air Temp Water Temp Dewpoint Dewpoint Depression Visibility Wind Speed Wind Dir Waves Ship Positions

Gildeskaal

Last reported at 2014-Oct-10 11:26 UTC. Time now 2014-Oct-21 12:03 UTC.
Position N 67°07' E 013°59'.
Warning: this ship's position is 11 days out of date.

Length 52 m; draft 3.2 m.

Type: Ship. MMSI: 259680000.

Date/timePositionNaut miles runAvg speedWind from/ knotsBaromVisibWave heightAir tempDewpointWater temp
2014-Oct-10 11:26N 67°07' E 013°59'1 0.4
2014-Oct-10 09:27N 67°07' E 013°59'0 0.1
2014-Oct-10 07:33N 67°07' E 013°59'1 0.5
2014-Oct-10 05:17N 67°06' E 013°59'3 0.9
2014-Oct-10 02:27N 67°08' E 013°59'0 0.0
2014-Oct-10 01:33N 67°08' E 013°59'0 0.0
2014-Oct-10 00:33N 67°08' E 013°59'0 0.0
2014-Oct-09 23:32N 67°08' E 013°59'0 0.0
2014-Oct-09 22:25N 67°08' E 013°59'0 0.0
2014-Oct-09 19:19N 67°08' E 013°59'3 2.7
2014-Oct-09 18:13N 67°05' E 013°60'1 2.1
2014-Oct-09 17:33N 67°07' E 013°59'1 1.4
2014-Oct-09 16:31N 67°05' E 014°00'2 0.5
2014-Oct-09 13:08N 67°07' E 013°59'1 2.0
2014-Oct-09 12:33N 67°08' E 013°59'0 0.0
2014-Oct-09 11:33N 67°08' E 013°59'2 0.9
2014-Oct-09 09:28N 67°06' E 013°59'0 0.0
2014-Oct-09 05:12N 67°06' E 013°59'2 0.6
2014-Oct-09 02:04N 67°08' E 013°59'0 0.0
2014-Oct-09 01:33N 67°08' E 013°59'0 0.0
2014-Oct-09 00:33N 67°08' E 013°59'0 0.0
2014-Oct-08 23:32N 67°08' E 013°59'0 0.0
2014-Oct-08 22:32N 67°08' E 013°59'0 0.0
2014-Oct-08 21:28N 67°08' E 013°59'0 0.0
2014-Oct-08 19:21N 67°08' E 013°59'3 2.5
2014-Oct-08 18:10N 67°05' E 013°60'1 1.9
2014-Oct-08 17:31N 67°06' E 013°59'0 0.2
2014-Oct-08 16:24N 67°06' E 013°59'1 0.2
2014-Oct-08 13:17N 67°06' E 013°59'3 3.1
2014-Oct-08 12:28N 67°08' E 013°59'0 0.0
2014-Oct-08 11:33N 67°08' E 013°59'2 0.9
2014-Oct-08 09:29N 67°06' E 013°59'0 0.1
2014-Oct-08 07:30N 67°07' E 013°59'1 0.4
2014-Oct-08 05:17N 67°06' E 013°59'3 3.6
2014-Oct-08 04:33N 67°08' E 013°59'0 0.0
2014-Oct-08 01:06N 67°08' E 013°59'0 0.0
2014-Oct-08 00:26N 67°08' E 013°59'0 0.0
2014-Oct-07 23:29N 67°08' E 013°59'0 0.0
2014-Oct-07 22:31N 67°08' E 013°59'0 0.0
2014-Oct-07 21:26N 67°08' E 013°59'0 0.0
2014-Oct-07 20:27N 67°08' E 013°59'0 0.0
2014-Oct-07 19:29N 67°08' E 013°59'3 3.0
2014-Oct-07 18:31N 67°05' E 014°00'2 1.1
2014-Oct-07 16:33N 67°07' E 013°59'1 0.3
2014-Oct-07 13:12N 67°07' E 013°59'2 2.6
2014-Oct-07 12:32N 67°08' E 013°59'0 0.0
2014-Oct-07 11:33N 67°08' E 013°59'2 0.8
2014-Oct-07 09:28N 67°07' E 013°59'2 1.8
2014-Oct-07 08:31N 67°08' E 013°59'2 0.5
2014-Oct-07 05:12N 67°06' E 013°59'2 0.9
2014-Oct-07 03:22N 67°08' E 013°59'0 0.0
2014-Oct-07 02:28N 67°08' E 013°59'0 0.0
2014-Oct-07 01:27N 67°08' E 013°59'0 0.0
2014-Oct-07 00:33N 67°08' E 013°59'0 0.0
2014-Oct-06 23:32N 67°08' E 013°59'0 0.0
2014-Oct-06 22:32N 67°08' E 013°59'0 0.0
2014-Oct-06 21:28N 67°08' E 013°59'0 0.0
2014-Oct-06 20:33N 67°08' E 013°59'0 0.0
2014-Oct-06 19:30N 67°08' E 013°59'2 1.5
2014-Oct-06 18:06N 67°06' E 013°59'1 0.5
2014-Oct-06 16:32N 67°05' E 013°60'3 0.7
2014-Oct-06 12:33N 67°08' E 013°59'2 0.5
2014-Oct-06 09:27N 67°07' E 013°59'2 1.7
2014-Oct-06 08:29N 67°08' E 013°59'1 1.3
2014-Oct-06 07:33N 67°07' E 013°59'1 0.3
2014-Oct-06 05:13N 67°06' E 013°59'2 2.8
2014-Oct-06 04:30N 67°08' E 013°59'0 0.0
2014-Oct-06 03:32N 67°08' E 013°59'0 0.0
2014-Oct-06 02:32N 67°08' E 013°59'0 0.0
2014-Oct-06 01:31N 67°08' E 013°59'0 0.0
2014-Oct-06 00:30N 67°08' E 013°59'0 0.0
2014-Oct-05 23:29N 67°08' E 013°59'0 0.0
2014-Oct-05 20:22N 67°08' E 013°59'0 0.0
2014-Oct-05 19:15N 67°08' E 013°59'2 0.7
2014-Oct-05 17:07N 67°07' E 013°59'1 1.5
2014-Oct-05 16:31N 67°08' E 013°59'2 1.5
2014-Oct-05 15:07N 67°05' E 013°60'2 1.3
2014-Oct-05 13:33N 67°07' E 013°59'2 0.4
2014-Oct-05 08:10N 67°05' E 014°00'2 3.9
2014-Oct-05 07:33N 67°08' E 013°58'3 0.2
2014-Oct-04 15:31N 67°05' E 014°00'1 0.2
2014-Oct-04 09:27N 67°06' E 013°58'2 1.9
2014-Oct-04 08:32N 67°08' E 013°59'1 0.7
2014-Oct-04 07:31N 67°08' E 013°59'1 0.8
2014-Oct-04 06:13N 67°06' E 013°59'2 0.2
2014-Oct-03 20:10N 67°08' E 013°59'0 0.0
2014-Oct-03 19:28N 67°08' E 013°59'3 2.3
2014-Oct-03 18:12N 67°05' E 014°00'1 0.4
2014-Oct-03 15:23N 67°06' E 013°59'1 0.5
2014-Oct-03 13:21N 67°05' E 014°00'1 0.2
2014-Oct-03 09:29N 67°06' E 013°59'2 2.1
2014-Oct-03 08:32N 67°08' E 013°59'3 0.9
2014-Oct-03 05:21N 67°05' E 014°00'3 3.6
2014-Oct-03 04:33N 67°08' E 013°59'0 0.0
2014-Oct-03 03:33N 67°08' E 013°59'0 0.0
2014-Oct-03 02:33N 67°08' E 013°59'0 0.0
2014-Oct-02 22:24N 67°08' E 013°59'0 0.0
2014-Oct-02 21:30N 67°08' E 013°59'0 0.0
2014-Oct-02 20:33N 67°08' E 013°59'0 0.0
2014-Oct-02 19:33N 67°08' E 013°59'3 1.8
2014-Oct-02 18:08N 67°06' E 013°59'1 0.5
2014-Oct-02 16:22N 67°07' E 013°59'2 2.1
2014-Oct-02 15:33N 67°08' E 013°59'2 0.9
2014-Oct-02 13:19N 67°06' E 013°59'2 2.6
2014-Oct-02 12:33N 67°08' E 013°59'0 0.0
2014-Oct-02 11:33N 67°08' E 013°59'2 0.8
2014-Oct-02 09:28N 67°07' E 013°59'2 1.8
2014-Oct-02 08:33N 67°08' E 013°59'1 1.1
2014-Oct-02 07:32N 67°07' E 013°59'2 0.9
2014-Oct-02 05:21N 67°05' E 014°00'3 3.7
2014-Oct-02 04:33N 67°08' E 013°59'0 0.0
2014-Oct-02 03:33N 67°08' E 013°59'0 0.0
2014-Oct-02 02:33N 67°08' E 013°59'0 0.0
2014-Oct-02 01:33N 67°08' E 013°59'0 0.0
2014-Oct-02 00:23N 67°08' E 013°59'0 0.0
2014-Oct-01 23:21N 67°08' E 013°59'0 0.0
2014-Oct-01 22:10N 67°08' E 013°59'0 0.0
2014-Oct-01 21:15N 67°08' E 013°59'0 0.0
2014-Oct-01 19:20N 67°08' E 013°59'3 2.7
2014-Oct-01 18:15N 67°05' E 014°00'2 3.2
2014-Oct-01 17:33N 67°08' E 013°59'2 1.8
2014-Oct-01 16:32N 67°06' E 013°59'3 2.1
2014-Oct-01 15:21N 67°08' E 013°59'2 1.0
2014-Oct-01 13:20N 67°06' E 013°59'2 1.6
2014-Oct-01 12:10N 67°08' E 013°59'2 1.3
2014-Oct-01 10:33N 67°06' E 013°59'0 0.1
2014-Oct-01 09:31N 67°06' E 013°59'42 3.1
2014-Sep-30 20:12N 66°32' E 012°58'810.0
2014-Sep-30 19:25N 66°24' E 012°58'  

Dump ship's entire track history